Time;durP1;ratioP1;P1;durP2;ratioP2;P2;SDS_P1;SDS_P2;PMS_P1;PMS_P2;Temp;Humidity;BMP_temperature;BMP_pressure;BME280_temperature;BME280_humidity;BME280_pressure;Samples;Min_cycle;Max_cycle;Signal;HPM_P1;HPM_P2
2021/03/30 00:00:52;;;;;;;11.27;7.47;;;;;;;5.11;70.93;102226.81;5050294;28;20457;-68
2021/03/30 00:03:17;;;;;;;11.68;7.03;;;;;;;4.96;71.79;102221.88;5045504;28;20072;-68
2021/03/30 00:05:43;;;;;;;8.18;7.10;;;;;;;4.87;72.57;102222.41;5031650;28;20033;-68
2021/03/30 00:08:08;;;;;;;10.48;7.95;;;;;;;4.94;73.28;102223.53;5049052;28;20029;-69
2021/03/30 00:10:37;;;;;;;10.70;6.88;;;;;;;4.95;71.69;102225.34;5030409;28;20116;-68
2021/03/30 00:13:02;;;;;;;7.85;6.25;;;;;;;4.80;71.79;102225.63;5040346;28;20025;-68
2021/03/30 00:15:28;;;;;;;7.13;5.80;;;;;;;4.68;72.09;102225.13;5042372;28;20037;-68
2021/03/30 00:17:53;;;;;;;8.48;5.90;;;;;;;4.64;71.72;102228.44;5028219;28;20029;-68
2021/03/30 00:20:19;;;;;;;7.25;5.75;;;;;;;4.57;71.80;102224.72;5043048;28;20066;-68
2021/03/30 00:22:44;;;;;;;7.93;5.82;;;;;;;4.52;72.21;102223.59;5042910;28;20041;-68
2021/03/30 00:25:10;;;;;;;8.02;6.85;;;;;;;4.47;72.21;102224.31;5050922;28;20107;-68
2021/03/30 00:27:36;;;;;;;9.07;7.28;;;;;;;4.52;73.47;102218.38;5032804;28;20638;-68
2021/03/30 00:30:04;;;;;;;9.82;7.10;;;;;;;4.61;73.59;102224.88;5028442;28;20017;-67
2021/03/30 00:32:29;;;;;;;8.70;6.50;;;;;;;4.69;73.09;102216.44;5033477;28;20044;-68
2021/03/30 00:34:54;;;;;;;8.55;7.40;;;;;;;4.74;72.57;102223.66;5029103;28;20030;-67
2021/03/30 00:37:20;;;;;;;8.52;7.60;;;;;;;4.82;72.32;102213.50;5050766;28;20431;-67
2021/03/30 00:39:45;;;;;;;9.95;7.30;;;;;;;4.90;72.18;102219.03;5050162;28;20530;-67
2021/03/30 00:42:10;;;;;;;10.07;7.32;;;;;;;4.98;71.63;102219.34;5030406;28;20028;-67
2021/03/30 00:44:36;;;;;;;9.23;7.78;;;;;;;4.92;71.76;102220.00;5029644;28;20031;-68
2021/03/30 00:47:02;;;;;;;9.18;7.47;;;;;;;4.93;72.03;102211.31;5050386;28;20035;-68
2021/03/30 00:49:29;;;;;;;10.05;7.05;;;;;;;4.86;72.34;102215.41;5036649;28;20025;-68
2021/03/30 00:51:55;;;;;;;8.70;6.47;;;;;;;4.66;71.17;102216.31;5026747;28;20639;-68
2021/03/30 00:54:20;;;;;;;6.78;6.07;;;;;;;4.41;72.24;102218.84;5034537;28;20032;-67
2021/03/30 00:56:45;;;;;;;9.05;6.63;;;;;;;4.26;73.10;102226.06;5051237;28;20021;-68
2021/03/30 00:59:12;;;;;;;7.97;6.88;;;;;;;4.34;73.51;102222.03;5036094;28;20111;-68
2021/03/30 01:01:37;;;;;;;9.93;8.15;;;;;;;4.45;73.92;102214.63;5023379;28;20491;-68
2021/03/30 01:04:03;;;;;;;11.02;7.18;;;;;;;4.55;73.20;102218.50;5034560;28;20033;-68
2021/03/30 01:06:28;;;;;;;9.98;8.13;;;;;;;4.61;73.26;102222.25;5029599;28;20055;-68
2021/03/30 01:09:31;;;;;;;10.13;7.57;;;;;;;4.62;73.34;102220.53;5053983;28;20029;-68
2021/03/30 01:12:19;;;;;;;10.88;7.15;;;;;;;4.60;73.09;102225.72;5035282;28;20082;-67
2021/03/30 01:15:19;;;;;;;9.15;7.55;;;;;;;4.57;72.75;102222.09;5039464;28;20029;-67
2021/03/30 01:18:07;;;;;;;8.88;7.50;;;;;;;4.45;71.75;102219.84;5020310;28;20052;-68
2021/03/30 01:21:12;;;;;;;8.60;6.72;;;;;;;4.26;72.86;102226.91;5038749;28;20022;-67
2021/03/30 01:24:15;;;;;;;10.93;7.25;;;;;;;4.27;73.21;102223.47;5041804;28;20550;-68
2021/03/30 01:26:48;;;;;;;10.65;7.07;;;;;;;4.25;74.22;102219.91;5045287;28;20033;-68
2021/03/30 01:29:20;;;;;;;9.13;7.47;;;;;;;4.31;73.68;102224.50;5051146;28;20107;-68
2021/03/30 01:31:49;;;;;;;;;;;;;;;4.33;73.64;102222.84;5035294;28;20097;-68
2021/03/30 01:34:15;;;;;;;10.77;7.07;;;;;;;4.28;73.38;102225.28;5044228;28;19939;-68
2021/03/30 01:36:42;;;;;;;11.02;7.55;;;;;;;4.25;73.52;102225.16;5042653;28;20064;-67
2021/03/30 01:39:13;;;;;;;10.88;7.95;;;;;;;4.22;73.48;102222.41;5008236;28;20036;-68
2021/03/30 01:41:44;;;;;;;9.90;8.45;;;;;;;4.18;73.38;102224.00;5035532;28;20078;-67
2021/03/30 01:44:10;;;;;;;12.73;8.80;;;;;;;4.23;73.43;102217.25;5025801;28;20547;-68
2021/03/30 01:46:36;;;;;;;10.10;8.27;;;;;;;4.19;74.06;102222.25;5029886;28;20051;-68
2021/03/30 01:49:01;;;;;;;11.82;7.70;;;;;;;4.22;73.91;102217.19;5026623;28;20158;-67
2021/03/30 01:51:27;;;;;;;8.73;7.47;;;;;;;4.13;74.35;102215.06;5034700;28;20024;-68
2021/03/30 01:53:53;;;;;;;8.60;6.90;;;;;;;4.02;73.18;102217.22;5024842;28;20021;-68
2021/03/30 01:56:19;;;;;;;8.63;6.82;;;;;;;4.00;73.51;102216.25;5029968;28;20042;-67
2021/03/30 01:58:45;;;;;;;8.30;6.88;;;;;;;3.83;72.58;102220.75;5025234;28;20068;-67
2021/03/30 02:01:14;;;;;;;7.38;6.68;;;;;;;3.71;73.07;102219.38;5051230;28;20033;-67
2021/03/30 02:03:40;;;;;;;10.10;7.32;;;;;;;3.51;73.55;102222.81;5043597;28;20029;-67
2021/03/30 02:06:07;;;;;;;6.82;6.03;;;;;;;3.44;74.06;102212.09;5018077;28;20032;-66
2021/03/30 02:08:33;;;;;;;8.23;6.93;;;;;;;3.33;74.16;102218.53;5044938;28;20784;-67
2021/03/30 02:10:58;;;;;;;8.73;7.15;;;;;;;3.23;74.65;102213.75;5028003;28;20032;-68
2021/03/30 02:16:22;;;;;;;7.95;6.30;;;;;;;3.04;75.42;102220.72;5033973;28;20381;-67
2021/03/30 02:19:12;;;;;;;7.32;6.57;;;;;;;3.02;75.11;102223.25;5030700;28;20306;-67
2021/03/30 02:22:06;;;;;;;10.23;6.82;;;;;;;3.04;75.51;102228.53;5031956;28;20025;-68
2021/03/30 02:24:32;;;;;;;8.85;6.97;;;;;;;3.11;75.75;102233.22;5034551;28;20438;-68
2021/03/30 02:26:59;;;;;;;9.27;7.95;;;;;;;3.17;75.52;102230.88;5029986;28;20147;-68
2021/03/30 02:29:27;;;;;;;9.38;7.45;;;;;;;3.04;74.89;102233.75;5031648;28;20033;-68
2021/03/30 02:31:54;;;;;;;8.63;6.80;;;;;;;2.98;75.43;102241.25;5048793;28;20059;-68
2021/03/30 02:34:23;;;;;;;7.57;6.60;;;;;;;2.93;75.00;102236.72;5026265;28;20029;-68
2021/03/30 02:36:51;;;;;;;7.57;6.32;;;;;;;2.85;75.13;102238.09;5024992;28;20494;-68
2021/03/30 02:39:18;;;;;;;10.07;7.10;;;;;;;2.86;75.05;102237.25;5031982;28;20031;-67
2021/03/30 02:41:44;;;;;;;7.85;6.32;;;;;;;2.83;74.74;102242.31;5033031;28;20040;-67
2021/03/30 02:44:11;;;;;;;9.88;6.07;;;;;;;2.67;75.06;102236.34;5030717;28;20537;-68
2021/03/30 02:46:38;;;;;;;9.65;7.38;;;;;;;2.76;76.62;102240.22;5034659;28;20045;-68
2021/03/30 02:49:04;;;;;;;9.85;8.02;;;;;;;2.95;76.05;102248.13;5026059;28;20112;-68
2021/03/30 02:51:31;;;;;;;8.80;7.38;;;;;;;3.09;75.70;102247.88;5033700;28;20100;-68
2021/03/30 02:53:57;;;;;;;13.00;7.53;;;;;;;3.16;75.31;102241.22;5027649;28;20039;-68
2021/03/30 02:56:23;;;;;;;8.85;7.75;;;;;;;3.21;75.06;102243.22;5026568;28;20056;-68
2021/03/30 02:58:53;;;;;;;9.52;8.23;;;;;;;3.31;74.66;102244.56;5028448;28;20052;-67
2021/03/30 03:01:19;;;;;;;10.65;7.78;;;;;;;3.31;74.14;102241.06;5038216;28;20030;-68
2021/03/30 03:03:45;;;;;;;7.60;6.47;;;;;;;3.21;74.61;102250.19;5047061;28;20120;-68
2021/03/30 03:06:11;;;;;;;9.43;6.93;;;;;;;3.08;74.12;102243.50;5033134;28;20028;-68
2021/03/30 03:08:36;;;;;;;11.40;6.75;;;;;;;2.89;73.55;102239.09;5032107;28;20395;-67
2021/03/30 03:11:04;;;;;;;9.35;7.07;;;;;;;2.72;74.32;102249.63;5016805;28;20488;-67
2021/03/30 03:13:29;;;;;;;10.18;6.60;;;;;;;2.67;74.59;102251.13;5029010;28;20123;-67
2021/03/30 03:15:55;;;;;;;7.28;6.20;;;;;;;2.59;75.18;102253.34;5028483;28;20092;-67
2021/03/30 03:18:21;;;;;;;10.10;7.05;;;;;;;2.62;75.69;102248.28;5029732;28;20396;-67
2021/03/30 03:20:47;;;;;;;10.77;7.60;;;;;;;2.67;75.81;102245.91;5031716;28;20036;-68
2021/03/30 03:23:13;;;;;;;9.60;7.35;;;;;;;2.74;76.27;102247.09;5029171;28;20021;-67
2021/03/30 03:25:40;;;;;;;10.23;7.53;;;;;;;2.74;76.01;102244.47;5041657;28;20412;-68
2021/03/30 03:28:05;;;;;;;10.50;6.80;;;;;;;2.69;75.44;102242.56;5032404;28;20025;-68
2021/03/30 03:30:31;;;;;;;8.77;7.07;;;;;;;2.67;75.68;102241.56;5040649;28;20199;-68
2021/03/30 03:33:08;;;;;;;11.75;7.75;;;;;;;2.74;75.77;102242.78;5026754;28;20025;-68
2021/03/30 03:35:34;;;;;;;9.27;7.50;;;;;;;2.85;75.73;102253.72;5039986;28;20379;-68
2021/03/30 03:38:01;;;;;;;8.73;7.40;;;;;;;2.85;75.56;102245.91;5031692;28;20026;-67
2021/03/30 03:40:26;;;;;;;9.40;7.45;;;;;;;2.81;75.42;102255.25;5041290;28;20370;-68
2021/03/30 03:42:52;;;;;;;9.77;7.72;;;;;;;2.74;75.60;102247.09;5025810;28;20029;-68
2021/03/30 03:45:17;;;;;;;9.15;7.30;;;;;;;2.67;75.54;102253.72;5051042;28;20034;-68
2021/03/30 03:47:43;;;;;;;8.77;6.88;;;;;;;2.66;74.84;102252.81;5048442;28;20025;-67
2021/03/30 03:50:09;;;;;;;8.77;7.25;;;;;;;2.59;75.90;102258.53;5029060;28;20036;-67
2021/03/30 03:52:37;;;;;;;9.27;7.18;;;;;;;2.50;75.04;102258.09;5037405;28;20040;-67
2021/03/30 03:55:03;;;;;;;9.80;6.90;;;;;;;2.39;75.38;102261.06;5034796;28;20028;-68
2021/03/30 03:57:34;;;;;;;9.48;6.57;;;;;;;2.29;74.96;102258.78;5032712;28;20037;-67
2021/03/30 04:00:00;;;;;;;12.57;7.03;;;;;;;2.25;76.35;102256.84;5048374;28;20064;-67
2021/03/30 04:02:29;;;;;;;8.15;7.30;;;;;;;2.38;76.48;102274.91;5026129;28;20110;-68
2021/03/30 04:05:16;;;;;;;9.80;7.43;;;;;;;2.44;76.41;102264.78;5046742;28;20033;-68
2021/03/30 04:07:53;;;;;;;7.07;6.38;;;;;;;2.51;76.14;102262.47;5032670;28;20026;-68
2021/03/30 04:10:20;;;;;;;10.55;7.57;;;;;;;2.53;75.71;102263.44;5035180;28;20021;-67
2021/03/30 04:12:46;;;;;;;9.95;7.60;;;;;;;2.52;75.52;102256.44;5014978;28;20040;-67
2021/03/30 04:15:13;;;;;;;10.45;7.50;;;;;;;2.48;75.88;102265.84;5017825;28;20028;-67
2021/03/30 04:17:40;;;;;;;9.77;8.00;;;;;;;2.53;76.10;102268.66;5026662;28;20028;-67
2021/03/30 04:20:14;;;;;;;9.98;7.80;;;;;;;2.57;75.27;102268.00;5047262;28;20025;-68
2021/03/30 04:22:40;;;;;;;12.73;7.68;;;;;;;2.57;75.08;102275.81;5055225;28;20033;-67
2021/03/30 04:25:06;;;;;;;10.60;7.88;;;;;;;2.54;75.66;102271.31;5051835;28;20036;-67
2021/03/30 04:27:32;;;;;;;9.52;7.60;;;;;;;2.52;75.79;102274.69;5050294;28;20507;-68
2021/03/30 04:29:58;;;;;;;9.07;7.60;;;;;;;2.52;75.51;102272.06;5034659;28;20047;-68
2021/03/30 04:32:23;;;;;;;8.13;7.05;;;;;;;2.49;75.83;102277.13;5041965;28;20036;-68
2021/03/30 04:34:48;;;;;;;9.60;7.97;;;;;;;2.43;75.72;102281.22;5054634;28;20041;-68
2021/03/30 04:37:14;;;;;;;10.68;7.47;;;;;;;2.42;75.49;102270.72;5034031;28;20029;-68
2021/03/30 04:39:39;;;;;;;12.20;8.48;;;;;;;2.42;76.04;102282.03;5051431;28;20043;-68
2021/03/30 04:42:05;;;;;;;12.35;8.40;;;;;;;2.36;74.87;102276.50;5047754;28;20469;-67
2021/03/30 04:44:30;;;;;;;7.35;6.50;;;;;;;2.24;75.54;102275.91;5048792;28;20113;-67
2021/03/30 04:46:57;;;;;;;7.85;7.05;;;;;;;2.07;75.24;102275.94;5054337;28;20017;-67
2021/03/30 04:49:22;;;;;;;10.32;6.85;;;;;;;2.03;75.56;102281.75;5036436;28;20488;-67
2021/03/30 04:51:48;;;;;;;8.18;6.97;;;;;;;2.04;76.04;102276.63;5053237;28;20036;-68
2021/03/30 04:54:13;;;;;;;8.65;6.75;;;;;;;1.98;76.27;102283.25;5040810;28;20033;-68
2021/03/30 04:56:38;;;;;;;12.15;7.05;;;;;;;1.99;76.07;102285.94;5035491;28;20040;-67
2021/03/30 04:59:04;;;;;;;8.40;6.90;;;;;;;2.05;76.61;102290.56;5027926;28;20484;-68
2021/03/30 05:01:29;;;;;;;9.88;8.10;;;;;;;2.13;75.77;102294.44;5053953;28;20033;-68
2021/03/30 05:03:54;;;;;;;11.93;7.35;;;;;;;2.02;76.42;102295.59;5053583;28;20476;-67
2021/03/30 05:06:20;;;;;;;8.30;7.40;;;;;;;2.05;76.19;102293.16;5045622;28;20060;-68
2021/03/30 05:08:45;;;;;;;10.30;7.57;;;;;;;2.09;76.83;102297.72;5046574;28;20032;-68
2021/03/30 05:11:11;;;;;;;11.48;7.38;;;;;;;2.26;76.50;102305.50;5027651;28;20061;-67
2021/03/30 05:13:36;;;;;;;10.02;7.93;;;;;;;2.34;76.29;102301.59;5034670;28;20047;-68
2021/03/30 05:16:01;;;;;;;11.02;7.68;;;;;;;2.42;75.23;102302.88;5036248;28;20104;-68
2021/03/30 05:18:27;;;;;;;13.55;7.38;;;;;;;2.46;74.90;102308.25;5053708;28;20123;-68
2021/03/30 05:20:52;;;;;;;9.90;7.90;;;;;;;2.52;74.91;102308.53;5047095;28;20044;-68
2021/03/30 05:23:17;;;;;;;8.52;7.68;;;;;;;2.54;75.14;102309.53;5050432;28;20612;-68
2021/03/30 05:25:42;;;;;;;10.07;7.30;;;;;;;2.62;75.09;102305.59;5049411;28;20099;-68
2021/03/30 05:28:08;;;;;;;8.57;7.22;;;;;;;2.67;75.30;102301.50;5046629;28;20051;-67
2021/03/30 05:30:33;;;;;;;10.00;7.72;;;;;;;2.55;73.61;102303.50;5035191;28;20029;-68
2021/03/30 05:32:59;;;;;;;8.85;7.50;;;;;;;2.51;75.07;102311.97;5052867;28;20040;-68
2021/03/30 05:35:24;;;;;;;10.50;7.65;;;;;;;2.59;75.32;102313.25;5049809;28;20025;-68
2021/03/30 05:37:49;;;;;;;10.18;7.40;;;;;;;2.72;74.78;102308.66;5035259;28;20021;-67
2021/03/30 05:40:17;;;;;;;10.35;8.30;;;;;;;2.68;74.23;102315.44;5035491;28;20025;-68
2021/03/30 05:42:43;;;;;;;9.73;7.22;;;;;;;2.74;75.01;102309.63;5035663;28;20090;-68
2021/03/30 05:45:10;;;;;;;9.18;7.60;;;;;;;2.92;75.30;102310.53;5049737;28;20057;-68
2021/03/30 05:47:36;;;;;;;12.95;8.90;;;;;;;3.19;75.05;102314.41;5045392;28;20021;-69
2021/03/30 05:50:11;;;;;;;11.60;9.93;;;;;;;3.48;74.00;102317.50;5017870;28;20508;-69
2021/03/30 05:55:12;;;;;;;8.93;7.63;;;;;;;5.07;71.32;102308.59;5053345;28;20079;-69
2021/03/30 05:57:38;;;;;;;10.10;8.07;;;;;;;6.16;67.00;102322.28;5030941;28;20400;-68
2021/03/30 06:00:06;;;;;;;11.55;8.00;;;;;;;7.05;63.60;102318.31;5044875;28;20030;-68
2021/03/30 06:02:41;;;;;;;7.95;6.47;;;;;;;7.57;62.29;102323.38;5034010;28;20040;-69
2021/03/30 06:05:07;;;;;;;9.48;6.90;;;;;;;8.09;61.12;102317.84;5016684;28;20022;-68
2021/03/30 06:07:36;;;;;;;7.75;6.93;;;;;;;8.45;59.61;102315.28;5035404;28;20600;-71
2021/03/30 06:10:02;;;;;;;7.45;6.50;;;;;;;8.54;59.02;102323.44;5033429;28;20052;-69
2021/03/30 06:12:28;;;;;;;9.10;7.55;;;;;;;8.66;60.38;102314.06;5052835;28;20044;-69
2021/03/30 06:15:00;;;;;;;7.50;6.70;;;;;;;9.31;58.92;102328.78;5052856;28;20048;-68
2021/03/30 06:17:25;;;;;;;8.45;6.82;;;;;;;10.04;57.03;102324.16;5035127;28;20472;-68
2021/03/30 06:19:55;;;;;;;6.20;5.57;;;;;;;11.33;54.52;102325.47;5050192;28;20035;-69
2021/03/30 06:22:25;;;;;;;9.25;6.47;;;;;;;12.28;51.93;102328.41;5052773;28;20021;-69
2021/03/30 06:24:54;;;;;;;9.00;6.50;;;;;;;13.43;50.24;102329.31;5051983;28;20033;-69
2021/03/30 06:27:20;;;;;;;7.38;5.57;;;;;;;14.64;48.28;102330.56;5032174;28;20036;-69
2021/03/30 06:29:46;;;;;;;6.15;5.18;;;;;;;15.51;45.06;102333.13;5052359;28;20033;-70
2021/03/30 06:32:16;;;;;;;7.90;5.57;;;;;;;15.63;43.82;102331.31;5052438;28;20035;-69
2021/03/30 06:34:43;;;;;;;8.27;5.78;;;;;;;16.52;42.84;102331.75;5016626;28;20052;-69
2021/03/30 06:37:30;;;;;;;12.48;6.00;;;;;;;17.07;42.50;102331.31;5032705;28;20100;-70
2021/03/30 06:39:57;;;;;;;7.05;6.03;;;;;;;18.00;41.13;102333.81;5052011;28;20048;-69
2021/03/30 06:42:40;;;;;;;13.35;12.05;;;;;;;18.20;41.08;102329.06;5034564;28;20060;-69
2021/03/30 06:45:19;;;;;;;13.45;10.00;;;;;;;18.98;40.17;102333.13;5033670;28;20024;-69
2021/03/30 06:47:51;;;;;;;11.43;10.23;;;;;;;20.07;37.04;102335.47;5034684;28;20082;-69
2021/03/30 06:50:30;;;;;;;14.73;9.75;;;;;;;20.23;35.51;102335.13;5034192;28;20499;-70
2021/03/30 06:52:57;;;;;;;12.68;8.85;;;;;;;20.72;36.96;102332.16;5022120;28;20472;-70
2021/03/30 06:55:25;;;;;;;10.25;8.18;;;;;;;21.64;35.30;102337.75;5036960;28;20032;-70
2021/03/30 06:57:50;;;;;;;10.18;6.15;;;;;;;21.48;33.81;102342.69;5041950;28;20028;-70
2021/03/30 07:00:31;;;;;;;8.63;6.97;;;;;;;21.65;33.87;102348.41;5033918;28;20098;-70
2021/03/30 07:02:59;;;;;;;7.13;6.38;;;;;;;22.18;32.59;102346.88;5032887;28;20025;-70
2021/03/30 07:05:38;;;;;;;6.75;6.10;;;;;;;21.97;32.93;102347.56;5033759;28;20059;-70
2021/03/30 07:08:11;;;;;;;6.55;5.55;;;;;;;22.99;33.08;102345.16;5051835;28;20112;-70
2021/03/30 07:10:39;;;;;;;7.07;6.28;;;;;;;23.75;31.80;102353.19;5027628;28;20079;-71
2021/03/30 07:13:05;;;;;;;5.20;4.70;;;;;;;24.42;31.55;102355.09;5051672;28;20036;-71
2021/03/30 07:15:31;;;;;;;5.35;4.78;;;;;;;26.14;29.20;102348.38;5031559;28;20440;-70
2021/03/30 07:18:13;;;;;;;7.93;5.20;;;;;;;26.87;25.86;102352.91;5033846;28;20025;-71
2021/03/30 07:20:47;;;;;;;8.23;5.65;;;;;;;27.13;25.09;102347.97;5050812;28;20036;-71
2021/03/30 07:23:19;;;;;;;5.85;4.72;;;;;;;27.35;25.68;102349.53;5033598;28;20025;-70
2021/03/30 07:25:56;;;;;;;7.80;5.68;;;;;;;28.80;24.17;102360.34;5030272;28;20028;-70
2021/03/30 07:28:24;;;;;;;6.20;5.20;;;;;;;28.61;23.71;102357.88;5040075;28;20021;-71
2021/03/30 07:30:54;;;;;;;7.75;5.93;;;;;;;28.53;24.63;102358.34;5051284;28;20032;-69
2021/03/30 07:33:20;;;;;;;;;;;;;;;29.27;24.33;102354.81;5051699;28;20107;-70
2021/03/30 07:35:46;;;;;;;5.10;4.60;;;;;;;29.53;24.40;102349.63;5030181;28;20019;-71
2021/03/30 07:38:18;;;;;;;15.13;11.65;;;;;;;29.81;23.76;102353.25;5030351;28;20508;-71
2021/03/30 07:40:43;;;;;;;18.45;16.85;;;;;;;29.09;24.46;102351.44;5051258;28;20285;-71
2021/03/30 07:43:11;;;;;;;12.18;10.85;;;;;;;30.24;23.44;102354.13;5032673;28;20071;-71
2021/03/30 07:45:40;;;;;;;7.95;7.30;;;;;;;30.33;21.66;102356.25;5013621;28;20025;-71
2021/03/30 07:48:06;;;;;;;6.80;6.15;;;;;;;27.56;23.18;102351.13;5033557;28;20338;-71
2021/03/30 07:50:55;;;;;;;7.55;6.50;;;;;;;27.53;24.21;102344.94;5051415;28;20106;-70
2021/03/30 07:53:42;;;;;;;6.47;5.88;;;;;;;27.32;25.53;102360.53;5047797;28;20481;-70
2021/03/30 07:56:29;;;;;;;9.50;7.78;;;;;;;27.62;23.76;102345.38;5047150;28;20040;-70
2021/03/30 07:58:56;;;;;;;7.03;6.30;;;;;;;26.62;24.61;102353.28;5029011;28;20037;-69
2021/03/30 08:01:24;;;;;;;6.57;5.97;;;;;;;26.50;24.31;102358.38;5030040;28;20025;-70
2021/03/30 08:03:51;;;;;;;7.55;6.60;;;;;;;26.78;24.95;102354.25;5032922;28;20036;-70
2021/03/30 08:06:23;;;;;;;11.38;10.27;;;;;;;27.37;23.96;102358.44;5033912;28;20029;-70
2021/03/30 08:08:49;;;;;;;7.38;5.72;;;;;;;28.15;23.37;102359.59;5047671;28;20086;-72
2021/03/30 08:11:16;;;;;;;7.20;5.60;;;;;;;27.84;22.52;102358.63;5050868;28;20048;-70
2021/03/30 08:13:53;;;;;;;9.93;6.30;;;;;;;27.35;23.11;102352.25;5032992;28;20186;-71
2021/03/30 08:16:20;;;;;;;7.78;6.88;;;;;;;27.21;23.01;102352.97;5038045;28;20033;-71
2021/03/30 08:18:46;;;;;;;5.90;5.35;;;;;;;27.24;23.17;102350.09;5045736;28;20043;-71
2021/03/30 08:21:16;;;;;;;6.78;6.18;;;;;;;27.69;22.36;102352.22;5034675;28;20040;-70
2021/03/30 08:23:55;;;;;;;11.02;5.78;;;;;;;27.68;23.28;102358.63;5048442;28;20369;-70
2021/03/30 08:26:32;;;;;;;17.70;16.20;;;;;;;28.75;22.01;102357.06;5043207;28;20064;-70
2021/03/30 08:29:01;;;;;;;9.15;6.30;;;;;;;28.55;21.74;102356.38;5046587;28;20071;-71
2021/03/30 08:31:29;;;;;;;10.97;6.70;;;;;;;28.95;21.54;102371.28;5051026;28;20117;-70
2021/03/30 08:34:00;;;;;;;7.30;5.40;;;;;;;28.89;21.72;102364.34;5032674;28;20120;-70
2021/03/30 08:36:26;;;;;;;;;;;;;;;29.10;21.65;102368.59;5026830;28;20035;-70
2021/03/30 08:38:58;;;;;;;6.50;5.82;;;;;;;29.28;22.36;102366.56;5032737;28;19913;-70
2021/03/30 08:41:42;;;;;;;6.55;5.93;;;;;;;29.89;21.08;102369.09;5037485;28;20029;-73
2021/03/30 08:44:14;;;;;;;8.20;5.80;;;;;;;30.29;21.27;102362.88;5049391;28;20116;-70
2021/03/30 08:46:41;;;;;;;7.78;5.50;;;;;;;29.89;21.27;102365.47;5032878;28;20392;-69
2021/03/30 08:49:31;;;;;;;7.47;6.72;;;;;;;29.47;20.41;102363.56;5031371;28;20040;-70
2021/03/30 08:51:58;;;;;;;;;;;;;;;29.65;20.79;102352.53;5032103;28;20499;-70
2021/03/30 08:54:25;;;;;;;6.10;5.50;;;;;;;29.90;19.92;102351.78;5031628;28;19959;-70
2021/03/30 08:56:50;;;;;;;7.90;6.72;;;;;;;30.31;19.58;102344.59;5034500;28;20048;-70
2021/03/30 08:59:18;;;;;;;7.47;6.50;;;;;;;31.16;19.39;102357.94;5049064;28;20033;-70
2021/03/30 09:01:44;;;;;;;9.52;6.70;;;;;;;31.14;19.15;102349.88;5036276;28;20029;-71
2021/03/30 09:04:10;;;;;;;8.52;7.80;;;;;;;31.71;17.73;102353.09;5054035;28;20078;-71
2021/03/30 09:06:41;;;;;;;7.22;6.53;;;;;;;31.28;17.97;102343.44;5036615;28;20033;-71
2021/03/30 09:09:21;;;;;;;6.85;6.25;;;;;;;31.38;18.12;102350.97;5050682;28;20044;-71
2021/03/30 09:11:46;;;;;;;7.40;6.70;;;;;;;31.60;18.00;102350.28;5035976;28;20021;-68
2021/03/30 09:14:16;;;;;;;13.32;11.93;;;;;;;32.05;17.11;102355.22;5046738;28;20477;-70
2021/03/30 09:16:41;;;;;;;21.50;18.38;;;;;;;32.38;16.30;102353.63;5036340;28;20146;-71
2021/03/30 09:19:27;;;;;;;7.60;6.85;;;;;;;32.61;16.16;102356.47;5047859;28;20036;-72
2021/03/30 09:21:59;;;;;;;19.63;15.07;;;;;;;33.15;16.13;102348.66;5043108;28;20104;-70
2021/03/30 09:24:51;;;;;;;7.30;6.50;;;;;;;32.81;15.61;102351.28;5032875;28;20480;-71
2021/03/30 09:27:21;;;;;;;7.15;6.30;;;;;;;32.30;15.74;102356.06;5053327;28;20033;-70
2021/03/30 09:29:46;;;;;;;;;;;;;;;32.39;15.73;102349.03;5030825;28;20029;-71
2021/03/30 09:32:11;;;;;;;7.00;6.23;;;;;;;32.56;16.03;102345.03;5035716;28;19974;-71
2021/03/30 09:34:38;;;;;;;8.18;7.03;;;;;;;33.29;14.67;102341.22;5030141;28;20032;-71
2021/03/30 09:37:04;;;;;;;6.15;5.53;;;;;;;34.09;13.76;102341.09;5035764;28;20087;-71
2021/03/30 09:39:29;;;;;;;6.60;5.85;;;;;;;33.50;14.56;102348.66;5047366;28;20435;-71
2021/03/30 09:41:56;;;;;;;9.02;7.00;;;;;;;33.82;13.69;102353.38;5053398;28;20029;-71
2021/03/30 09:44:23;;;;;;;7.10;6.40;;;;;;;33.50;14.26;102349.53;5031774;28;20078;-71
2021/03/30 09:46:51;;;;;;;6.75;6.15;;;;;;;33.41;13.31;102345.66;5035633;28;20028;-72
2021/03/30 09:49:19;;;;;;;6.25;5.65;;;;;;;34.07;14.32;102343.09;5038221;28;20119;-71
2021/03/30 09:51:45;;;;;;;7.05;6.40;;;;;;;33.98;13.46;102341.13;5035595;28;20025;-72
2021/03/30 09:54:18;;;;;;;6.57;5.97;;;;;;;33.69;14.04;102337.09;5035153;28;20104;-70
2021/03/30 09:56:43;;;;;;;7.00;6.30;;;;;;;33.94;12.95;102339.66;5053599;28;20091;-71
2021/03/30 09:59:09;;;;;;;7.80;6.80;;;;;;;33.85;13.38;102333.97;5044476;28;20492;-71
2021/03/30 10:01:34;;;;;;;6.75;6.15;;;;;;;34.82;12.74;102334.06;5034850;28;20060;-71
2021/03/30 10:03:59;;;;;;;7.32;6.28;;;;;;;35.40;12.36;102327.16;5046283;28;20039;-71
2021/03/30 10:06:28;;;;;;;8.32;6.80;;;;;;;33.96;12.68;102334.91;5035381;28;20467;-70
2021/03/30 10:09:03;;;;;;;7.88;6.70;;;;;;;34.61;13.20;102336.78;5046234;28;20084;-71
2021/03/30 10:11:30;;;;;;;7.72;6.45;;;;;;;34.47;13.15;102325.16;5035019;28;20028;-71
2021/03/30 10:13:55;;;;;;;8.38;6.25;;;;;;;34.66;13.79;102327.19;5052780;28;20044;-70
2021/03/30 10:16:21;;;;;;;8.53;6.57;;;;;;;35.05;13.87;102336.66;5050570;28;20389;-71
2021/03/30 10:18:46;;;;;;;6.65;6.05;;;;;;;34.78;12.56;102327.13;5041791;28;20330;-71
2021/03/30 10:21:17;;;;;;;5.57;5.07;;;;;;;34.99;12.05;102326.22;5034895;28;20045;-71
2021/03/30 10:23:48;;;;;;;7.30;5.18;;;;;;;36.69;11.96;102324.56;5035122;28;20027;-72
2021/03/30 10:26:15;;;;;;;7.50;6.57;;;;;;;36.27;12.43;102315.63;5031519;28;20071;-71
2021/03/30 10:28:41;;;;;;;7.75;6.80;;;;;;;35.53;13.27;102315.06;5052464;28;20094;-71
2021/03/30 10:31:14;;;;;;;6.53;5.93;;;;;;;35.21;13.24;102300.56;5030618;28;20029;-72
2021/03/30 10:33:43;;;;;;;8.18;5.43;;;;;;;35.50;12.99;102304.41;5031387;28;20041;-72
2021/03/30 10:36:13;;;;;;;9.43;7.87;;;;;;;36.34;12.44;102315.94;5038109;28;20033;-71
2021/03/30 10:38:39;;;;;;;5.75;5.20;;;;;;;36.95;12.38;102315.66;5034888;28;20033;-72
2021/03/30 10:41:07;;;;;;;7.80;6.80;;;;;;;37.21;12.13;102306.78;5037342;28;20025;-71
2021/03/30 10:43:33;;;;;;;10.90;7.90;;;;;;;36.20;12.40;102301.63;5045784;28;20074;-72
2021/03/30 10:45:58;;;;;;;8.98;8.07;;;;;;;35.99;13.57;102300.84;5051663;28;20028;-71
2021/03/30 10:48:24;;;;;;;8.50;7.70;;;;;;;35.88;12.64;102304.63;5026097;28;20425;-72
2021/03/30 10:50:52;;;;;;;7.60;6.35;;;;;;;35.83;13.41;102297.69;5041839;28;20042;-72
2021/03/30 10:53:18;;;;;;;8.93;8.02;;;;;;;35.54;13.92;102289.38;5052150;28;20097;-72
2021/03/30 10:55:43;;;;;;;7.80;6.90;;;;;;;35.89;13.57;102292.63;5034256;28;20041;-72
2021/03/30 10:58:10;;;;;;;9.27;7.38;;;;;;;36.90;12.96;102285.03;5051920;28;20056;-72
2021/03/30 11:00:36;;;;;;;9.18;7.50;;;;;;;36.67;13.35;102283.50;5034048;28;20032;-72
2021/03/30 11:03:01;;;;;;;12.35;8.30;;;;;;;37.02;13.34;102277.44;5049690;28;20415;-72
2021/03/30 11:05:27;;;;;;;8.85;8.05;;;;;;;36.31;13.05;102275.03;5046531;28;20106;-70
2021/03/30 11:07:52;;;;;;;8.23;7.40;;;;;;;36.37;12.86;102274.41;5016616;28;20025;-72
2021/03/30 11:10:19;;;;;;;9.32;7.78;;;;;;;36.77;13.78;102275.22;5033637;28;20028;-71
2021/03/30 11:12:44;;;;;;;8.40;7.15;;;;;;;37.01;12.13;102267.47;5033783;28;20035;-70
2021/03/30 11:15:11;;;;;;;7.85;6.82;;;;;;;36.98;12.58;102266.75;5044299;28;20427;-70
2021/03/30 11:17:36;;;;;;;7.03;6.43;;;;;;;37.04;13.45;102262.53;5051808;28;20060;-72
2021/03/30 11:20:04;;;;;;;7.88;5.70;;;;;;;37.08;13.32;102265.84;5051400;28;20114;-72
2021/03/30 11:22:29;;;;;;;8.88;7.65;;;;;;;36.44;12.99;102259.09;5033507;28;20079;-72
2021/03/30 11:24:59;;;;;;;11.93;8.10;;;;;;;36.50;13.49;102251.28;5048894;28;20432;-71
2021/03/30 11:27:24;;;;;;;9.63;8.25;;;;;;;36.93;13.40;102252.59;5051495;28;20624;-72
2021/03/30 11:29:56;;;;;;;9.60;7.00;;;;;;;37.02;12.80;102245.31;5033668;28;20086;-72
2021/03/30 11:32:42;;;;;;;9.63;7.53;;;;;;;37.57;12.38;102242.72;5051394;28;20033;-70
2021/03/30 11:37:44;;;;;;;8.60;6.38;;;;;;;37.30;12.32;102239.00;5051366;28;20092;-72
2021/03/30 11:40:10;;;;;;;9.15;7.32;;;;;;;36.93;13.35;102238.84;5034340;28;20373;-71
2021/03/30 11:42:35;;;;;;;10.35;7.80;;;;;;;37.04;12.01;102242.44;5050786;28;20032;-71
2021/03/30 11:45:01;;;;;;;8.90;7.50;;;;;;;36.54;12.42;102230.75;5051359;28;20033;-71